Fexhe-le-Haut-Clocher, Belgium
Current Conditions -  °F | °C
As of 6:50 PM on Saturday 20 Dec 2014 (Local Time) from EBLG Reporting Station
Broken Clouds Broken Clouds  
Wind Chill: 36°   Ceiling: 4800
Heat Index: 43°   Visibility: 6mi
Dew Point: 37°   Wind: 14mph
Humidity: 81%   Direction: 270°W
Pressure: 30.27"   Gusts: NA
Location:  50.67°N, 5.4°E
Report Text: EBLG 201750Z 27012KT 9999 SCT025 BKN048 06/03 Q1025 NOSIG
Loading
Personal Weather Stations






























Interactive Weather Map New forecast layout! Learn more

10-Day Weather Forecast

Advertisements
Track Severe Weather on mobile